Time,TemperatureF,DewpointF,PressureIn,WindDirection,WindDirectionDegrees,WindSpeedMPH,WindSpeedGustMPH,Humidity,HourlyPrecipIn,Conditions,Clouds,dailyrainin,SoftwareType,DateUTC
2013-08-07 00:02:00,75.0,73.0,29.85,SSE,154,0.0,2.0,95,0.00,,,0.00,,2013-08-07 05:02:00,
2013-08-07 00:11:00,75.0,73.0,29.85,SSE,154,0.0,2.0,94,0.00,,,0.00,,2013-08-07 05:11:00,
2013-08-07 00:22:00,74.0,72.0,29.85,North,0,0.0,0.0,94,0.00,,,0.00,,2013-08-07 05:22:00,
2013-08-07 00:32:00,74.0,72.0,29.85,North,0,0.0,0.0,94,0.00,,,0.00,,2013-08-07 05:32:00,
2013-08-07 00:43:00,74.0,72.0,29.86,North,0,0.0,0.0,94,0.00,,,0.00,,2013-08-07 05:43:00,
2013-08-07 00:52:00,74.0,72.0,29.86,North,0,0.0,0.0,94,0.00,,,0.00,,2013-08-07 05:52:00,
2013-08-07 01:02:00,74.0,72.0,29.86,North,0,0.0,0.0,94,0.00,,,0.00,,2013-08-07 06:02:00,
2013-08-07 01:11:00,74.0,72.0,29.86,North,0,0.0,0.0,95,0.00,,,0.00,,2013-08-07 06:11:00,
2013-08-07 01:22:00,73.0,71.0,29.86,North,0,0.0,0.0,95,0.00,,,0.00,,2013-08-07 06:22:00,
2013-08-07 01:32:00,73.0,71.0,29.86,North,0,0.0,0.0,95,0.00,,,0.00,,2013-08-07 06:32:00,
2013-08-07 01:43:00,73.0,71.0,29.85,North,0,0.0,0.0,95,0.00,,,0.00,,2013-08-07 06:43:00,
2013-08-07 01:52:00,73.0,71.0,29.85,North,0,0.0,0.0,95,0.00,,,0.00,,2013-08-07 06:52:00,
2013-08-07 02:01:00,73.0,71.0,29.85,North,0,0.0,0.0,95,0.00,,,0.00,,2013-08-07 07:01:00,
2013-08-07 02:12:00,73.0,71.0,29.85,North,0,0.0,0.0,95,0.00,,,0.00,,2013-08-07 07:12:00,
2013-08-07 02:22:00,73.0,71.0,29.84,North,0,0.0,0.0,95,0.00,,,0.00,,2013-08-07 07:22:00,
2013-08-07 02:33:00,73.0,72.0,29.83,North,0,0.0,0.0,96,0.00,,,0.00,,2013-08-07 07:33:00,
2013-08-07 02:43:00,73.0,72.0,29.84,North,0,0.0,0.0,96,0.00,,,0.00,,2013-08-07 07:43:00,
2013-08-07 02:52:00,73.0,72.0,29.84,North,0,0.0,0.0,96,0.00,,,0.00,,2013-08-07 07:52:00,
2013-08-07 03:01:00,73.0,72.0,29.83,North,0,0.0,0.0,96,0.00,,,0.00,,2013-08-07 08:01:00,
2013-08-07 03:11:00,73.0,72.0,29.83,North,0,0.0,0.0,96,0.00,,,0.00,,2013-08-07 08:11:00,
2013-08-07 03:22:00,73.0,72.0,29.82,North,0,0.0,0.0,96,0.00,,,0.00,,2013-08-07 08:22:00,
2013-08-07 03:32:00,73.0,72.0,29.82,North,0,0.0,0.0,96,0.00,,,0.00,,2013-08-07 08:32:00,
2013-08-07 03:44:00,73.0,72.0,29.81,SSE,154,0.0,1.0,96,0.00,,,0.00,,2013-08-07 08:44:00,
2013-08-07 03:52:00,73.0,72.0,29.81,SE,144,0.0,2.0,96,0.00,,,0.00,,2013-08-07 08:52:00,
2013-08-07 04:02:00,73.0,72.0,29.81,SE,145,0.0,1.0,96,0.00,,,0.00,,2013-08-07 09:02:00,
2013-08-07 04:11:00,73.0,72.0,29.81,North,0,0.0,0.0,96,0.00,,,0.00,,2013-08-07 09:11:00,
2013-08-07 04:22:00,73.0,72.0,29.81,SE,140,0.0,2.0,96,0.00,,,0.00,,2013-08-07 09:22:00,
2013-08-07 04:32:00,73.0,72.0,29.82,SE,140,0.0,2.0,96,0.00,,,0.00,,2013-08-07 09:32:00,
2013-08-07 04:43:00,73.0,72.0,29.82,SE,140,0.0,2.0,96,0.00,,,0.00,,2013-08-07 09:43:00,
2013-08-07 04:54:00,73.0,72.0,29.82,South,189,0.0,3.0,97,0.00,,,0.00,,2013-08-07 09:54:00,
2013-08-07 05:01:00,73.0,72.0,29.82,SE,142,0.0,3.0,97,0.00,,,0.00,,2013-08-07 10:01:00,
2013-08-07 05:11:00,73.0,72.0,29.82,SE,128,0.0,1.0,97,0.00,,,0.00,,2013-08-07 10:11:00,
2013-08-07 05:22:00,73.0,72.0,29.81,SE,127,0.0,2.0,97,0.00,,,0.00,,2013-08-07 10:22:00,
2013-08-07 05:32:00,73.0,72.0,29.83,SW,230,0.0,6.0,97,0.00,,,0.00,,2013-08-07 10:32:00,
2013-08-07 05:43:00,73.0,72.0,29.83,WSW,238,0.0,2.0,97,0.00,,,0.00,,2013-08-07 10:43:00,
2013-08-07 05:52:00,73.0,72.0,29.83,WSW,237,0.0,1.0,97,0.00,,,0.00,,2013-08-07 10:52:00,
2013-08-07 06:01:00,73.0,72.0,29.83,North,0,0.0,0.0,97,0.00,,,0.00,,2013-08-07 11:01:00,
2013-08-07 06:11:00,73.0,72.0,29.83,North,0,0.0,0.0,97,0.00,,,0.00,,2013-08-07 11:11:00,
2013-08-07 06:22:00,73.0,72.0,29.83,North,0,0.0,0.0,97,0.00,,,0.00,,2013-08-07 11:22:00,
2013-08-07 06:32:00,73.0,72.0,29.82,WSW,239,0.0,2.0,97,0.00,,,0.00,,2013-08-07 11:32:00,
2013-08-07 06:43:00,72.0,71.0,29.82,SW,227,0.0,2.0,97,0.00,,,0.00,,2013-08-07 11:43:00,
2013-08-07 06:52:00,72.0,71.0,29.82,SW,227,0.0,1.0,97,0.00,,,0.00,,2013-08-07 11:52:00,
2013-08-07 07:02:00,72.0,71.0,29.84,North,0,0.0,0.0,97,0.00,,,0.00,,2013-08-07 12:02:00,
2013-08-07 07:11:00,72.0,71.0,29.83,SW,223,0.0,2.0,97,0.00,,,0.00,,2013-08-07 12:11:00,
2013-08-07 07:22:00,72.0,71.0,29.83,SSW,208,0.0,5.0,97,0.00,,,0.00,,2013-08-07 12:22:00,
2013-08-07 07:32:00,72.0,71.0,29.83,SW,214,0.0,6.0,97,0.00,,,0.00,,2013-08-07 12:32:00,
2013-08-07 07:43:00,72.0,71.0,29.83,SSW,193,0.0,2.0,97,0.00,,,0.00,,2013-08-07 12:43:00,
2013-08-07 07:52:00,72.0,71.0,29.83,SSW,193,0.0,3.0,97,0.00,,,0.00,,2013-08-07 12:52:00,
2013-08-07 08:02:00,72.0,71.0,29.84,SSW,197,0.0,4.0,97,0.00,,,0.00,,2013-08-07 13:02:00,
2013-08-07 08:11:00,72.0,71.0,29.86,SW,232,1.0,6.0,97,0.00,,,0.00,,2013-08-07 13:11:00,
2013-08-07 08:22:00,72.0,71.0,29.86,SW,236,1.0,6.0,97,0.00,,,0.00,,2013-08-07 13:22:00,
2013-08-07 08:32:00,72.0,71.0,29.88,SSW,213,0.0,2.0,97,0.00,,,0.00,,2013-08-07 13:32:00,
2013-08-07 08:44:00,72.0,71.0,29.88,North,0,0.0,0.0,97,0.00,,,0.01,,2013-08-07 13:44:00,
2013-08-07 08:53:00,72.0,71.0,29.90,North,0,0.0,0.0,97,0.00,,,0.01,,2013-08-07 13:53:00,
2013-08-07 09:02:00,72.0,71.0,29.90,SSW,213,0.0,1.0,97,0.01,,,0.02,,2013-08-07 14:02:00,
2013-08-07 09:11:00,72.0,71.0,29.89,SSW,213,0.0,1.0,97,0.01,,,0.02,,2013-08-07 14:11:00,
2013-08-07 09:22:00,72.0,71.0,29.89,SSW,213,0.0,3.0,97,0.01,,,0.02,,2013-08-07 14:22:00,
2013-08-07 09:33:00,72.0,71.0,29.88,North,0,0.0,0.0,97,0.02,,,0.03,,2013-08-07 14:33:00,
2013-08-07 09:43:00,72.0,71.0,29.88,SSW,213,0.0,1.0,97,0.01,,,0.03,,2013-08-07 14:43:00,
2013-08-07 09:52:00,72.0,71.0,29.88,SSW,213,0.0,1.0,97,0.01,,,0.03,,2013-08-07 14:52:00,
2013-08-07 10:02:00,72.0,71.0,29.88,SSW,213,0.0,1.0,97,0.01,,,0.03,,2013-08-07 15:02:00,
2013-08-07 10:12:00,72.0,71.0,29.88,SSW,213,0.0,1.0,97,0.01,,,0.03,,2013-08-07 15:12:00,
2013-08-07 10:22:00,72.0,71.0,29.88,SSW,213,0.0,1.0,97,0.01,,,0.03,,2013-08-07 15:22:00,
2013-08-07 12:01:00,75.0,74.0,29.89,WNW,285,0.0,3.0,97,0.01,,,0.09,,2013-08-07 17:01:00,
2013-08-07 12:11:00,74.0,73.0,29.89,SW,219,0.0,3.0,97,0.00,,,0.09,,2013-08-07 17:11:00,
2013-08-07 12:22:00,75.0,74.0,29.88,SSW,207,0.0,2.0,97,0.00,,,0.09,,2013-08-07 17:22:00,
2013-08-07 12:33:00,75.0,74.0,29.86,ESE,122,0.0,3.0,97,0.00,,,0.10,,2013-08-07 17:33:00,
2013-08-07 12:43:00,75.0,75.0,29.85,ESE,112,0.0,4.0,100,0.00,,,0.10,,2013-08-07 17:43:00,
2013-08-07 12:52:00,75.0,74.0,29.85,ESE,112,0.0,3.0,97,0.00,,,0.10,,2013-08-07 17:52:00,
2013-08-07 13:02:00,75.0,74.0,29.86,ESE,112,0.0,3.0,97,0.00,,,0.10,,2013-08-07 18:02:00,
2013-08-07 13:11:00,75.0,74.0,29.86,ESE,112,0.0,3.0,97,0.00,,,0.10,,2013-08-07 18:11:00,
2013-08-07 13:22:00,76.0,75.0,29.85,ESE,113,0.0,3.0,97,0.01,,,0.10,,2013-08-07 18:22:00,
2013-08-07 13:32:00,76.0,75.0,29.85,SSE,157,0.0,5.0,97,0.00,,,0.10,,2013-08-07 18:32:00,
2013-08-07 13:43:00,76.0,75.0,29.85,SE,135,0.0,7.0,97,0.00,,,0.10,,2013-08-07 18:43:00,
2013-08-07 13:52:00,77.0,76.0,29.83,ESE,123,1.0,7.0,97,0.00,,,0.10,,2013-08-07 18:52:00,
2013-08-07 14:01:00,78.0,77.0,29.83,SE,133,0.0,5.0,96,0.00,,,0.10,,2013-08-07 19:01:00,
2013-08-07 14:11:00,78.0,76.0,29.83,East,96,0.0,1.0,94,0.00,,,0.10,,2013-08-07 19:11:00,
2013-08-07 14:22:00,78.0,75.0,29.83,North,0,0.0,0.0,92,0.00,,,0.10,,2013-08-07 19:22:00,
2013-08-07 14:32:00,79.0,75.0,29.81,East,90,2.0,7.0,89,0.00,,,0.10,,2013-08-07 19:32:00,
2013-08-07 14:44:00,79.0,75.0,29.81,ENE,73,0.0,5.0,87,0.00,,,0.11,,2013-08-07 19:44:00,
2013-08-07 14:52:00,79.0,74.0,29.82,ENE,77,1.0,5.0,86,0.00,,,0.11,,2013-08-07 19:52:00,
2013-08-07 15:02:00,79.0,74.0,29.82,East,90,1.0,7.0,84,0.00,,,0.11,,2013-08-07 20:02:00,
2013-08-07 15:11:00,80.0,74.0,29.82,East,90,0.0,5.0,82,0.00,,,0.11,,2013-08-07 20:11:00,
2013-08-07 15:32:00,81.0,74.0,29.82,East,89,1.0,6.0,79,0.00,,,0.11,,2013-08-07 20:32:00,
2013-08-07 15:43:00,81.0,73.0,29.82,East,100,0.0,8.0,77,0.00,,,0.11,,2013-08-07 20:43:00,
2013-08-07 15:52:00,81.0,73.0,29.82,East,92,0.0,5.0,76,0.00,,,0.11,,2013-08-07 20:52:00,
2013-08-07 16:01:00,82.0,73.0,29.82,ESE,102,0.0,3.0,74,0.00,,,0.11,,2013-08-07 21:01:00,
2013-08-07 16:11:00,83.0,73.0,29.81,East,89,1.0,6.0,73,0.00,,,0.11,,2013-08-07 21:11:00,
2013-08-07 16:22:00,83.0,73.0,29.81,East,99,0.0,1.0,72,0.00,,,0.11,,2013-08-07 21:22:00,
2013-08-07 16:32:00,83.0,73.0,29.82,ESE,112,0.0,1.0,73,0.00,,,0.11,,2013-08-07 21:32:00,
2013-08-07 16:43:00,82.0,72.0,29.82,ESE,111,0.0,3.0,71,0.00,,,0.11,,2013-08-07 21:43:00,
2013-08-07 16:52:00,83.0,73.0,29.83,ESE,109,0.0,2.0,72,0.00,,,0.11,,2013-08-07 21:52:00,
2013-08-07 17:01:00,84.0,74.0,29.83,SE,127,0.0,1.0,72,0.00,,,0.11,,2013-08-07 22:01:00,
2013-08-07 17:12:00,83.0,73.0,29.83,SE,128,0.0,5.0,71,0.00,,,0.11,,2013-08-07 22:12:00,
2013-08-07 17:22:00,83.0,73.0,29.83,SE,139,0.0,2.0,72,0.00,,,0.12,,2013-08-07 22:22:00,
2013-08-07 17:32:00,83.0,73.0,29.82,North,0,0.0,0.0,73,0.00,,,0.12,,2013-08-07 22:32:00,
2013-08-07 17:43:00,82.0,74.0,29.82,SE,137,0.0,1.0,76,0.00,,,0.12,,2013-08-07 22:43:00,
2013-08-07 17:52:00,82.0,73.0,29.83,SE,137,0.0,1.0,75,0.00,,,0.12,,2013-08-07 22:52:00,
2013-08-07 18:01:00,83.0,74.0,29.82,SE,137,0.0,2.0,75,0.00,,,0.12,,2013-08-07 23:01:00,
2013-08-07 18:11:00,83.0,75.0,29.82,SE,137,0.0,1.0,76,0.00,,,0.12,,2013-08-07 23:11:00,
2013-08-07 18:22:00,82.0,73.0,29.82,North,0,0.0,0.0,75,0.00,,,0.12,,2013-08-07 23:22:00,
2013-08-07 18:32:00,82.0,74.0,29.82,SE,138,0.0,4.0,77,0.00,,,0.12,,2013-08-07 23:32:00,
2013-08-07 18:43:00,82.0,75.0,29.82,SE,138,0.0,2.0,79,0.00,,,0.12,,2013-08-07 23:43:00,
2013-08-07 18:52:00,82.0,74.0,29.82,North,0,0.0,0.0,78,0.00,,,0.12,,2013-08-07 23:52:00,
2013-08-07 19:01:00,82.0,74.0,29.82,North,0,0.0,0.0,78,0.00,,,0.12,,2013-08-08 00:01:00,
2013-08-07 19:11:00,81.0,74.0,29.82,North,0,0.0,0.0,79,0.00,,,0.12,,2013-08-08 00:11:00,
2013-08-07 19:22:00,81.0,74.0,29.82,North,0,0.0,0.0,80,0.00,,,0.12,,2013-08-08 00:22:00,
2013-08-07 19:32:00,81.0,74.0,29.82,North,0,0.0,0.0,80,0.00,,,0.12,,2013-08-08 00:32:00,
2013-08-07 19:42:00,81.0,75.0,29.82,North,0,0.0,0.0,81,0.00,,,0.12,,2013-08-08 00:42:00,
2013-08-07 19:52:00,81.0,75.0,29.82,North,0,0.0,0.0,82,0.00,,,0.12,,2013-08-08 00:52:00,
2013-08-07 20:02:00,80.0,74.0,29.82,North,0,0.0,0.0,82,0.00,,,0.12,,2013-08-08 01:02:00,
2013-08-07 20:11:00,80.0,74.0,29.82,North,0,0.0,0.0,83,0.00,,,0.12,,2013-08-08 01:11:00,
2013-08-07 20:22:00,80.0,75.0,29.82,North,0,0.0,0.0,84,0.00,,,0.12,,2013-08-08 01:22:00,
2013-08-07 20:32:00,79.0,74.0,29.82,North,0,0.0,0.0,85,0.00,,,0.12,,2013-08-08 01:32:00,
2013-08-07 20:43:00,79.0,75.0,29.82,North,0,0.0,0.0,87,0.00,,,0.12,,2013-08-08 01:43:00,
2013-08-07 20:52:00,78.0,74.0,29.82,North,0,0.0,0.0,87,0.00,,,0.11,,2013-08-08 01:52:00,
2013-08-07 21:02:00,78.0,74.0,29.83,North,0,0.0,0.0,89,0.00,,,0.11,,2013-08-08 02:02:00,
2013-08-07 21:11:00,78.0,74.0,29.83,North,0,0.0,0.0,89,0.00,,,0.11,,2013-08-08 02:11:00,
2013-08-07 21:22:00,78.0,75.0,29.83,North,0,0.0,0.0,90,0.00,,,0.11,,2013-08-08 02:22:00,
2013-08-07 21:32:00,77.0,74.0,29.84,North,0,0.0,0.0,90,0.00,,,0.11,,2013-08-08 02:32:00,
2013-08-07 21:42:00,77.0,74.0,29.84,North,0,0.0,0.0,91,0.00,,,0.11,,2013-08-08 02:42:00,
2013-08-07 21:52:00,77.0,74.0,29.85,North,0,0.0,0.0,91,0.00,,,0.11,,2013-08-08 02:52:00,
2013-08-07 22:01:00,77.0,74.0,29.85,North,0,0.0,0.0,92,0.00,,,0.11,,2013-08-08 03:01:00,
2013-08-07 22:12:00,77.0,74.0,29.85,North,0,0.0,0.0,92,0.00,,,0.11,,2013-08-08 03:12:00,
2013-08-07 22:22:00,77.0,74.0,29.85,North,0,0.0,0.0,92,0.00,,,0.11,,2013-08-08 03:22:00,
2013-08-07 22:32:00,76.0,74.0,29.85,North,0,0.0,0.0,92,0.00,,,0.11,,2013-08-08 03:32:00,
2013-08-07 22:43:00,76.0,74.0,29.85,North,0,0.0,0.0,92,0.00,,,0.11,,2013-08-08 03:43:00,
2013-08-07 22:52:00,76.0,74.0,29.85,North,0,0.0,0.0,93,0.00,,,0.11,,2013-08-08 03:52:00,
2013-08-07 23:01:00,76.0,74.0,29.85,North,0,0.0,0.0,93,0.00,,,0.11,,2013-08-08 04:01:00,
2013-08-07 23:11:00,76.0,74.0,29.85,North,0,0.0,0.0,94,0.00,,,0.11,,2013-08-08 04:11:00,
2013-08-07 23:22:00,76.0,74.0,29.85,North,0,0.0,0.0,95,0.00,,,0.11,,2013-08-08 04:22:00,
2013-08-07 23:33:00,76.0,74.0,29.85,North,0,0.0,0.0,95,0.00,,,0.11,,2013-08-08 04:33:00,
2013-08-07 23:43:00,76.0,74.0,29.85,North,0,0.0,0.0,95,0.00,,,0.11,,2013-08-08 04:43:00,
2013-08-07 23:53:00,76.0,74.0,29.85,North,0,0.0,0.0,95,0.00,,,0.11,,2013-08-08 04:53:00,